Terminal Aerodrome Forecast
Issued by NWS

Home | Current Version | Previous Version | Text Only | Print | Product List | Glossary On
Versions: 1 2 3 4 5 6 7 8 9 10 11 12 13 14 15 16 17
000
FTUS43 KLSX 281100
TAFCPS
TAF
KCPS 281126Z 2812/2912 00000KT 4SM BR FEW060
      TEMPO 2812/2813 2SM BR
     FM281400 04005KT P6SM SKC
     FM290600 VRB03KT P6SM SKC=

USA.gov is the U.S. government's official web portal to all federal, state and local government web resources and services.